createdAt,value
2022-11-16T00:01:38.975Z,39.50
2022-11-16T00:04:41.626Z,38.15
2022-11-16T00:07:44.094Z,39.65
2022-11-16T00:10:46.647Z,38.67
2022-11-16T00:13:57.492Z,37.85
2022-11-16T00:17:00.388Z,40.33
2022-11-16T00:20:02.954Z,37.78
2022-11-16T00:23:05.448Z,38.97
2022-11-16T00:26:09.935Z,37.92
2022-11-16T00:29:16.004Z,38.08
2022-11-16T00:32:18.423Z,38.37
2022-11-16T00:35:21.005Z,39.45
2022-11-16T00:38:23.923Z,39.13
2022-11-16T00:41:26.341Z,38.42
2022-11-16T00:44:30.295Z,40.33
2022-11-16T00:47:32.784Z,40.07
2022-11-16T00:50:35.623Z,39.00
2022-11-16T00:53:38.967Z,39.95
2022-11-16T00:56:42.671Z,41.30
2022-11-16T00:59:47.075Z,40.83
2022-11-16T01:02:49.593Z,41.17
2022-11-16T01:05:52.137Z,38.83
2022-11-16T01:08:54.537Z,42.15
2022-11-16T01:12:12.745Z,42.42
2022-11-16T01:15:18.727Z,41.67
2022-11-16T01:18:21.137Z,41.97
2022-11-16T01:21:24.163Z,41.83
2022-11-16T01:24:27.430Z,42.03
2022-11-16T01:27:29.933Z,41.80
2022-11-16T01:30:36.279Z,40.03
2022-11-16T01:33:42.761Z,42.00
2022-11-16T01:36:53.803Z,42.03
2022-11-16T01:39:56.713Z,43.25
2022-11-16T01:42:59.534Z,41.25
2022-11-16T01:46:03.370Z,42.22
2022-11-16T01:49:10.813Z,42.90
2022-11-16T01:52:16.738Z,42.65
2022-11-16T01:55:19.817Z,44.90
2022-11-16T01:58:37.574Z,43.20
2022-11-16T02:01:51.764Z,42.42
2022-11-16T02:04:57.058Z,41.20
2022-11-16T02:08:50.173Z,42.10
2022-11-16T02:12:09.253Z,41.97
2022-11-16T02:15:20.542Z,41.97
2022-11-16T02:18:38.371Z,40.60
2022-11-16T02:21:44.889Z,39.50
2022-11-16T02:25:00.337Z,40.38
2022-11-16T02:28:16.610Z,41.67
2022-11-16T02:31:28.160Z,39.90
2022-11-16T02:34:36.050Z,37.33
2022-11-16T02:37:43.835Z,35.50
2022-11-16T02:40:50.187Z,38.35
2022-11-16T02:44:02.453Z,37.50
2022-11-16T02:47:11.562Z,37.03
2022-11-16T02:50:18.686Z,38.10
2022-11-16T02:53:23.064Z,37.03
2022-11-16T02:56:27.370Z,36.17
2022-11-16T02:59:36.008Z,37.42
2022-11-16T03:02:48.153Z,36.30
2022-11-16T03:05:53.687Z,37.42
2022-11-16T03:09:01.868Z,36.23
2022-11-16T03:12:11.064Z,37.10
2022-11-16T03:15:13.856Z,36.83
2022-11-16T03:18:19.719Z,38.50
2022-11-16T03:21:36.906Z,37.05
2022-11-16T03:24:40.415Z,38.53
2022-11-16T03:27:49.922Z,39.78
2022-11-16T03:30:58.749Z,38.58
2022-11-16T03:34:10.470Z,37.55
2022-11-16T03:37:15.201Z,39.92
2022-11-16T03:40:19.247Z,39.07
2022-11-16T03:43:26.584Z,40.25
2022-11-16T03:46:30.889Z,38.25
2022-11-16T03:49:34.936Z,38.17
2022-11-16T03:52:38.383Z,38.00
2022-11-16T03:55:43.473Z,36.50
2022-11-16T03:58:49.771Z,36.67
2022-11-16T04:01:53.535Z,37.88
2022-11-16T04:05:17.164Z,35.20
2022-11-16T04:08:38.715Z,38.50
2022-11-16T04:12:00.363Z,37.23
2022-11-16T04:15:21.294Z,38.75
2022-11-16T04:18:42.973Z,37.58
2022-11-16T04:22:11.996Z,38.17
2022-11-16T04:25:18.291Z,37.78
2022-11-16T04:28:23.799Z,38.03
2022-11-16T04:31:48.357Z,39.40
2022-11-16T04:35:09.966Z,38.75
2022-11-16T04:38:14.425Z,38.30
2022-11-16T04:41:35.382Z,36.65
2022-11-16T04:44:56.638Z,35.70
2022-11-16T04:48:02.265Z,35.85
2022-11-16T04:51:07.620Z,35.95
2022-11-16T04:54:12.524Z,37.88
2022-11-16T04:57:15.650Z,35.63
2022-11-16T05:00:20.140Z,38.57
2022-11-16T05:03:23.064Z,44.10
2022-11-16T05:06:26.493Z,36.60
2022-11-16T05:09:30.847Z,35.20
2022-11-16T05:12:34.191Z,34.83
2022-11-16T05:15:39.166Z,33.00
2022-11-16T05:18:41.783Z,32.85
2022-11-16T05:21:44.812Z,33.92
2022-11-16T05:24:49.327Z,32.67
2022-11-16T05:27:51.957Z,34.50
2022-11-16T05:30:54.398Z,34.90
2022-11-16T05:33:59.118Z,34.90
2022-11-16T05:37:01.716Z,36.17
2022-11-16T05:40:08.126Z,34.15
2022-11-16T05:43:23.151Z,32.40
2022-11-16T05:46:37.010Z,33.63
2022-11-16T05:49:40.961Z,33.55
2022-11-16T05:52:43.794Z,33.60
2022-11-16T05:55:49.025Z,34.15
2022-11-16T05:58:53.747Z,34.95
2022-11-16T06:01:57.882Z,34.90
2022-11-16T06:05:02.071Z,35.30
2022-11-16T06:08:05.439Z,35.17
2022-11-16T06:11:10.716Z,36.63
2022-11-16T06:14:15.989Z,38.13
2022-11-16T06:17:19.193Z,45.73
2022-11-16T06:20:21.965Z,38.08
2022-11-16T06:23:27.508Z,37.10
2022-11-16T06:26:31.745Z,36.45
2022-11-16T06:29:36.277Z,34.10
2022-11-16T06:32:39.110Z,32.47
2022-11-16T06:35:43.443Z,34.97
2022-11-16T06:38:47.284Z,37.28
2022-11-16T06:41:51.773Z,32.67
2022-11-16T06:44:55.271Z,33.05
2022-11-16T06:48:02.900Z,32.90
2022-11-16T06:51:06.226Z,31.95
2022-11-16T06:54:08.988Z,35.45
2022-11-16T06:57:13.367Z,33.40
2022-11-16T07:00:39.878Z,37.53
2022-11-16T07:03:47.064Z,32.97
2022-11-16T07:06:49.688Z,34.85
2022-11-16T07:09:53.426Z,39.30
2022-11-16T07:13:01.961Z,36.05
2022-11-16T07:16:06.087Z,35.70
2022-11-16T07:19:10.169Z,38.37
2022-11-16T07:22:14.211Z,37.10
2022-11-16T07:25:21.150Z,35.63
2022-11-16T07:28:27.908Z,35.67
2022-11-16T07:31:31.344Z,39.15
2022-11-16T07:34:54.124Z,36.43
2022-11-16T07:37:56.762Z,35.95
2022-11-16T07:41:04.359Z,39.28
2022-11-16T07:44:12.328Z,36.75
2022-11-16T07:47:17.583Z,35.10
2022-11-16T07:50:20.224Z,37.37
2022-11-16T07:53:24.340Z,39.08
2022-11-16T07:56:27.372Z,39.60
2022-11-16T07:59:31.768Z,39.42
2022-11-16T08:02:35.231Z,39.03
2022-11-16T08:05:39.954Z,41.50
2022-11-16T08:08:44.465Z,42.30
2022-11-16T08:11:47.295Z,42.88
2022-11-16T08:14:51.448Z,44.55
2022-11-16T08:17:54.351Z,39.67
2022-11-16T08:20:58.835Z,43.60
2022-11-16T08:24:01.883Z,41.25
2022-11-16T08:27:15.340Z,44.58
2022-11-16T08:30:23.929Z,43.15
2022-11-16T08:33:29.193Z,43.97
2022-11-16T08:36:32.127Z,41.13
2022-11-16T08:39:35.551Z,42.72
2022-11-16T08:42:43.473Z,44.33
2022-11-16T08:46:04.419Z,43.30
2022-11-16T08:49:13.394Z,43.30
2022-11-16T08:52:18.350Z,42.20
2022-11-16T08:55:22.547Z,44.88
2022-11-16T08:58:25.506Z,42.20
2022-11-16T09:01:32.551Z,43.70
2022-11-16T09:04:37.288Z,41.47
2022-11-16T09:07:40.934Z,38.40
2022-11-16T09:10:44.111Z,40.05
2022-11-16T09:13:50.281Z,39.75
2022-11-16T09:16:57.105Z,37.45
2022-11-16T09:20:00.385Z,38.60
2022-11-16T09:23:03.591Z,38.23
2022-11-16T09:26:07.146Z,38.08
2022-11-16T09:29:12.729Z,38.67
2022-11-16T09:32:18.624Z,34.65
2022-11-16T09:35:21.448Z,37.22
2022-11-16T09:38:40.228Z,36.73
2022-11-16T09:42:06.651Z,34.60
2022-11-16T09:45:19.622Z,36.83
2022-11-16T09:48:25.069Z,36.10
2022-11-16T09:51:32.579Z,35.67
2022-11-16T09:54:42.583Z,37.00
2022-11-16T09:57:46.806Z,37.10
2022-11-16T10:00:56.830Z,37.92
2022-11-16T10:04:09.097Z,34.80
2022-11-16T10:07:15.882Z,35.03
2022-11-16T10:10:30.328Z,35.13
2022-11-16T10:13:49.722Z,36.83
2022-11-16T10:16:58.361Z,34.33
2022-11-16T10:20:16.851Z,31.38
2022-11-16T10:23:28.830Z,31.15
2022-11-16T10:26:38.545Z,33.90
2022-11-16T10:29:53.678Z,32.88
2022-11-16T10:33:00.411Z,29.65
2022-11-16T10:36:11.113Z,30.13
2022-11-16T10:39:16.455Z,30.40
2022-11-16T10:42:23.265Z,29.30
2022-11-16T10:45:32.601Z,26.73
2022-11-16T10:48:42.857Z,26.88
2022-11-16T10:51:46.926Z,29.58
2022-11-16T10:54:49.573Z,28.27
2022-11-16T10:57:58.350Z,26.70
2022-11-16T11:01:01.790Z,25.08
2022-11-16T11:04:17.389Z,29.80
2022-11-16T11:07:31.288Z,26.73
2022-11-16T11:10:35.898Z,27.55
2022-11-16T11:13:38.626Z,26.80
2022-11-16T11:16:42.055Z,29.77
2022-11-16T11:19:44.566Z,28.88
2022-11-16T11:22:53.500Z,25.98
2022-11-16T11:25:59.154Z,24.98
2022-11-16T11:29:07.421Z,26.13
2022-11-16T11:32:20.754Z,24.70
2022-11-16T11:35:34.699Z,22.52
2022-11-16T11:38:56.127Z,23.33
2022-11-16T11:42:05.684Z,24.42
2022-11-16T11:45:13.170Z,24.83
2022-11-16T11:48:29.712Z,24.63
2022-11-16T11:51:36.009Z,25.60
2022-11-16T11:54:46.062Z,26.50
2022-11-16T11:57:53.768Z,25.33
2022-11-16T12:01:23.758Z,26.27
2022-11-16T12:05:01.581Z,24.77
2022-11-16T12:08:20.291Z,24.35
2022-11-16T12:11:32.491Z,24.48
2022-11-16T12:14:51.350Z,24.88
2022-11-16T12:18:03.761Z,24.37
2022-11-16T12:21:12.816Z,26.40
2022-11-16T12:24:29.574Z,28.08
2022-11-16T12:27:46.138Z,27.52
2022-11-16T12:31:01.424Z,28.20
2022-11-16T12:34:15.685Z,25.63
2022-11-16T12:37:25.048Z,26.60
2022-11-16T12:40:35.889Z,25.55
2022-11-16T12:43:48.074Z,24.92
2022-11-16T12:46:58.574Z,25.45
2022-11-16T12:50:15.551Z,26.13
2022-11-16T12:53:37.972Z,25.77
2022-11-16T12:56:51.793Z,26.08
2022-11-16T13:00:06.983Z,25.23
2022-11-16T13:03:18.964Z,26.20
2022-11-16T13:06:29.018Z,25.80
2022-11-16T13:09:36.360Z,28.70
2022-11-16T13:12:39.514Z,27.13
2022-11-16T13:15:46.404Z,26.00
2022-11-16T13:18:49.569Z,25.45
2022-11-16T13:22:02.684Z,27.30
2022-11-16T13:25:18.615Z,25.92
2022-11-16T13:28:33.281Z,24.75
2022-11-16T13:31:41.629Z,25.08
2022-11-16T13:34:45.859Z,25.50
2022-11-16T13:37:49.400Z,26.50
2022-11-16T13:40:51.897Z,27.65
2022-11-16T13:43:54.946Z,27.48
2022-11-16T13:47:04.450Z,26.27
2022-11-16T13:50:18.456Z,26.65
2022-11-16T13:56:53.556Z,27.80
2022-11-16T14:00:09.796Z,28.08
2022-11-16T14:03:28.934Z,29.13
2022-11-16T14:06:56.700Z,31.42
2022-11-16T14:10:00.433Z,30.67
2022-11-16T14:13:04.564Z,31.92
2022-11-16T14:16:54.862Z,27.90
2022-11-16T14:19:59.179Z,34.63
2022-11-16T14:23:23.034Z,41.20
2022-11-16T14:26:37.308Z,33.47
2022-11-16T14:29:55.765Z,32.97
2022-11-16T14:33:01.751Z,34.75
2022-11-16T14:36:10.803Z,33.63
2022-11-16T14:39:26.490Z,32.97
2022-11-16T14:42:38.141Z,31.10
2022-11-16T14:45:56.175Z,30.00
2022-11-16T14:49:01.611Z,30.88
2022-11-16T14:52:08.296Z,30.45
2022-11-16T14:55:18.516Z,30.48
2022-11-16T14:58:23.010Z,30.43
2022-11-16T15:01:28.438Z,30.42
2022-11-16T15:04:31.325Z,29.35
2022-11-16T15:07:35.203Z,30.73
2022-11-16T15:10:49.545Z,31.65
2022-11-16T15:13:55.350Z,30.63
2022-11-16T15:16:59.970Z,35.85
2022-11-16T15:20:04.539Z,30.38
2022-11-16T15:23:14.887Z,32.80
2022-11-16T15:26:20.594Z,31.63
2022-11-16T15:29:24.630Z,31.93
2022-11-16T15:32:27.386Z,33.20
2022-11-16T15:35:31.859Z,31.63
2022-11-16T15:38:37.604Z,31.27
2022-11-16T15:41:40.817Z,30.33
2022-11-16T15:44:44.006Z,32.10
2022-11-16T15:47:47.442Z,39.85
2022-11-16T15:51:07.216Z,34.30
2022-11-16T15:54:21.033Z,36.28
2022-11-16T15:57:24.948Z,32.78
2022-11-16T16:00:28.269Z,32.87
2022-11-16T16:03:34.833Z,32.05
2022-11-16T16:06:46.640Z,38.83
2022-11-16T16:10:22.215Z,37.45
2022-11-16T16:13:50.609Z,34.05
2022-11-16T16:16:57.941Z,37.97
2022-11-16T16:20:02.689Z,43.88
2022-11-16T16:23:07.626Z,37.70
2022-11-16T16:26:11.486Z,35.63
2022-11-16T16:29:14.020Z,34.25
2022-11-16T16:32:24.335Z,34.23
2022-11-16T16:35:27.033Z,32.35
2022-11-16T16:38:29.776Z,32.40
2022-11-16T16:41:33.698Z,32.00
2022-11-16T16:44:36.509Z,33.40
2022-11-16T16:47:39.160Z,34.17
2022-11-16T16:50:42.101Z,32.55
2022-11-16T16:53:45.395Z,34.28
2022-11-16T16:56:49.346Z,37.63
2022-11-16T16:59:51.968Z,38.75
2022-11-16T17:02:54.370Z,40.57
2022-11-16T17:05:59.831Z,34.33
2022-11-16T17:09:02.577Z,28.50
2022-11-16T17:12:06.915Z,28.50
2022-11-16T17:15:13.841Z,28.95
2022-11-16T17:18:19.384Z,31.80
2022-11-16T17:21:22.181Z,32.35
2022-11-16T17:24:24.835Z,33.75
2022-11-16T17:27:28.928Z,34.67
2022-11-16T17:30:31.784Z,34.20
2022-11-16T17:33:34.766Z,34.70
2022-11-16T17:36:37.814Z,34.83
2022-11-16T17:39:40.727Z,33.60
2022-11-16T17:42:45.027Z,36.55
2022-11-16T17:45:47.677Z,37.08
2022-11-16T17:48:50.883Z,34.50
2022-11-16T17:51:54.097Z,40.28
2022-11-16T17:54:56.588Z,44.97
2022-11-16T17:58:00.532Z,44.65
2022-11-16T18:01:03.267Z,43.47
2022-11-16T18:04:06.205Z,32.37
2022-11-16T18:07:08.995Z,33.63
2022-11-16T18:10:18.882Z,34.78
2022-11-16T18:13:23.409Z,34.85
2022-11-16T18:16:27.888Z,36.25
2022-11-16T18:19:30.368Z,37.37
2022-11-16T18:22:33.045Z,36.95
2022-11-16T18:25:36.925Z,36.85
2022-11-16T18:28:41.439Z,34.13
2022-11-16T18:31:44.403Z,34.40
2022-11-16T18:34:47.175Z,35.80
2022-11-16T18:37:49.913Z,38.88
2022-11-16T18:41:03.752Z,45.10
2022-11-16T18:44:08.185Z,35.88
2022-11-16T18:47:10.913Z,31.48
2022-11-16T18:50:20.073Z,35.07
2022-11-16T18:53:25.642Z,36.33
2022-11-16T18:56:28.831Z,39.03
2022-11-16T18:59:32.976Z,35.72
2022-11-16T19:02:35.884Z,38.28
2022-11-16T19:05:38.837Z,39.53
2022-11-16T19:08:54.058Z,42.13
2022-11-16T19:11:58.319Z,44.90
2022-11-16T19:15:02.772Z,51.83
2022-11-16T19:18:20.904Z,46.90
2022-11-16T19:21:24.522Z,37.93
2022-11-16T19:24:27.360Z,38.08
2022-11-16T19:27:30.137Z,35.65
2022-11-16T19:30:53.224Z,40.50
2022-11-16T19:33:57.735Z,37.78
2022-11-16T19:37:00.480Z,33.97
2022-11-16T19:40:03.604Z,31.85
2022-11-16T19:43:07.584Z,31.42
2022-11-16T19:46:16.359Z,34.28
2022-11-16T19:49:20.666Z,32.97
2022-11-16T19:52:23.525Z,35.83
2022-11-16T19:55:26.687Z,38.20
2022-11-16T19:58:29.522Z,40.67
2022-11-16T20:01:33.648Z,41.88
2022-11-16T20:04:36.404Z,44.35
2022-11-16T20:07:39.305Z,39.77
2022-11-16T20:10:42.055Z,36.65
2022-11-16T20:13:44.740Z,35.78
2022-11-16T20:16:50.343Z,33.83
2022-11-16T20:19:52.976Z,33.88
2022-11-16T20:22:55.713Z,33.33
2022-11-16T20:25:58.400Z,34.25
2022-11-16T20:29:00.927Z,30.40
2022-11-16T20:32:05.316Z,30.95
2022-11-16T20:35:08.662Z,30.33
2022-11-16T20:38:11.421Z,29.87
2022-11-16T20:41:15.797Z,25.98
2022-11-16T20:44:21.981Z,26.38
2022-11-16T20:47:25.984Z,27.50
2022-11-16T20:50:28.479Z,30.95
2022-11-16T20:53:32.487Z,29.03
2022-11-16T20:56:35.826Z,31.40
2022-11-16T20:59:38.317Z,31.38
2022-11-16T21:02:42.634Z,30.38
2022-11-16T21:05:50.156Z,28.95
2022-11-16T21:08:53.739Z,28.63
2022-11-16T21:12:14.745Z,27.88
2022-11-16T21:15:17.178Z,29.88
2022-11-16T21:18:23.351Z,29.02
2022-11-16T21:21:28.129Z,27.65
2022-11-16T21:24:32.124Z,26.17
2022-11-16T21:27:34.596Z,27.02
2022-11-16T21:30:37.166Z,28.55
2022-11-16T21:33:40.961Z,28.77
2022-11-16T21:36:43.452Z,29.60
2022-11-16T21:39:47.031Z,26.10
2022-11-16T21:42:51.222Z,25.40
2022-11-16T21:46:01.933Z,24.48
2022-11-16T21:49:07.530Z,23.67
2022-11-16T21:52:10.060Z,26.17
2022-11-16T21:55:12.675Z,23.40
2022-11-16T21:58:15.108Z,21.38
2022-11-16T22:01:17.713Z,23.05
2022-11-16T22:04:40.202Z,20.92
2022-11-16T22:07:42.824Z,20.45
2022-11-16T22:10:49.674Z,18.03
2022-11-16T22:13:52.167Z,19.35
2022-11-16T22:16:54.652Z,17.33
2022-11-16T22:19:58.756Z,15.27
2022-11-16T22:23:01.208Z,10.63
2022-11-16T22:26:05.443Z,8.07
2022-11-16T22:29:07.902Z,8.00
2022-11-16T22:32:10.557Z,7.93
2022-11-16T22:35:14.459Z,7.22
2022-11-16T22:38:17.000Z,7.57
2022-11-16T22:41:20.217Z,7.23
2022-11-16T22:44:22.684Z,7.13
2022-11-16T22:47:25.135Z,7.38
2022-11-16T22:50:28.882Z,8.52
2022-11-16T22:53:31.493Z,8.60
2022-11-16T22:56:34.252Z,6.70
2022-11-16T22:59:36.786Z,6.70
2022-11-16T23:02:39.219Z,6.95
2022-11-16T23:05:43.043Z,7.22
2022-11-16T23:08:45.491Z,7.60
2022-11-16T23:12:06.415Z,7.37
2022-11-16T23:15:30.304Z,7.45
2022-11-16T23:18:33.407Z,7.20
2022-11-16T23:22:09.703Z,7.55
2022-11-16T23:25:30.809Z,8.88
2022-11-16T23:28:33.270Z,8.00
2022-11-16T23:31:35.904Z,7.85
2022-11-16T23:34:38.375Z,8.73
2022-11-16T23:37:52.757Z,8.60
2022-11-16T23:40:55.293Z,8.48
2022-11-16T23:43:57.775Z,9.07
2022-11-16T23:47:00.174Z,9.38
2022-11-16T23:50:02.914Z,9.43
2022-11-16T23:53:07.980Z,9.75
2022-11-16T23:56:10.460Z,10.70
2022-11-16T23:59:13.090Z,11.33
